createdAt,value
2023-03-29T00:01:00.586Z,97803.92
2023-03-29T00:03:29.052Z,97804.14
2023-03-29T00:06:03.291Z,97799.77
2023-03-29T00:08:34.138Z,97802.91
2023-03-29T00:11:02.343Z,97801.63
2023-03-29T00:13:30.875Z,97810.40
2023-03-29T00:15:58.892Z,97811.90
2023-03-29T00:18:26.819Z,97815.02
2023-03-29T00:20:59.963Z,97812.33
2023-03-29T00:23:28.291Z,97814.06
2023-03-29T00:25:57.078Z,97813.16
2023-03-29T00:28:25.151Z,97809.45
2023-03-29T00:30:53.510Z,97806.25
2023-03-29T00:33:21.778Z,97807.59
2023-03-29T00:35:53.551Z,97811.45
2023-03-29T00:38:22.190Z,97810.77
2023-03-29T00:40:50.388Z,97809.51
2023-03-29T00:43:19.116Z,97804.62
2023-03-29T00:45:47.604Z,97809.70
2023-03-29T00:48:24.563Z,97813.58
2023-03-29T00:50:56.497Z,97820.91
2023-03-29T00:53:36.123Z,97822.64
2023-03-29T00:56:07.589Z,97827.50
2023-03-29T00:58:40.982Z,97829.14
2023-03-29T01:01:19.507Z,97831.06
2023-03-29T01:04:18.190Z,97828.83
2023-03-29T01:06:56.404Z,97828.27
2023-03-29T01:09:30.509Z,97842.52
2023-03-29T01:12:05.851Z,97843.05
2023-03-29T01:14:34.106Z,97844.14
2023-03-29T01:17:04.430Z,97837.25
2023-03-29T01:19:40.363Z,97838.16
2023-03-29T01:22:38.894Z,97842.96
2023-03-29T01:25:22.560Z,97840.02
2023-03-29T01:27:56.193Z,97846.16
2023-03-29T01:30:34.775Z,97844.65
2023-03-29T01:33:23.609Z,97849.16
2023-03-29T01:36:11.947Z,97844.69
2023-03-29T01:38:47.872Z,97845.55
2023-03-29T01:41:16.732Z,97852.09
2023-03-29T01:43:59.362Z,97856.77
2023-03-29T01:46:38.727Z,97855.02
2023-03-29T01:49:27.549Z,97852.58
2023-03-29T01:52:01.494Z,97847.59
2023-03-29T01:54:37.255Z,97842.00
2023-03-29T01:57:10.555Z,97846.84
2023-03-29T01:59:42.980Z,97852.38
2023-03-29T02:02:16.102Z,97853.24
2023-03-29T02:04:50.489Z,97852.21
2023-03-29T02:07:23.689Z,97846.02
2023-03-29T02:09:53.828Z,97844.46
2023-03-29T02:12:22.433Z,97854.17
2023-03-29T02:14:51.008Z,97855.13
2023-03-29T02:17:24.843Z,97850.40
2023-03-29T02:19:59.446Z,97846.14
2023-03-29T02:22:37.783Z,97854.14
2023-03-29T02:25:09.105Z,97859.65
2023-03-29T02:27:39.634Z,97865.26
2023-03-29T02:30:10.928Z,97860.82
2023-03-29T02:33:04.393Z,97863.09
2023-03-29T02:35:41.369Z,97863.92
2023-03-29T02:38:14.906Z,97874.18
2023-03-29T02:40:46.965Z,97880.44
2023-03-29T02:43:17.253Z,97885.23
2023-03-29T02:45:47.300Z,97881.82
2023-03-29T02:48:18.864Z,97886.06
2023-03-29T02:50:51.195Z,97892.98
2023-03-29T02:53:24.835Z,97883.24
2023-03-29T02:55:54.185Z,97878.47
2023-03-29T02:58:28.994Z,97888.09
2023-03-29T03:01:00.017Z,97894.39
2023-03-29T03:03:29.495Z,97896.44
2023-03-29T03:06:01.826Z,97895.86
2023-03-29T03:08:30.802Z,97895.77
2023-03-29T03:10:59.857Z,97898.73
2023-03-29T03:13:28.256Z,97902.15
2023-03-29T03:15:56.349Z,97907.52
2023-03-29T03:18:24.571Z,97906.61
2023-03-29T03:21:02.203Z,97909.64
2023-03-29T03:23:30.939Z,97908.19
2023-03-29T03:25:59.298Z,97907.98
2023-03-29T03:28:27.742Z,97915.88
2023-03-29T03:30:56.055Z,97914.67
2023-03-29T03:33:25.029Z,97907.81
2023-03-29T03:36:19.141Z,97915.84
2023-03-29T03:38:47.981Z,97918.13
2023-03-29T03:41:16.613Z,97921.27
2023-03-29T03:43:48.879Z,97920.83
2023-03-29T03:46:18.419Z,97927.72
2023-03-29T03:48:47.462Z,97928.15
2023-03-29T03:51:20.696Z,97931.36
2023-03-29T03:53:49.139Z,97935.50
2023-03-29T03:56:35.857Z,97932.72
2023-03-29T03:59:26.767Z,97935.94
2023-03-29T04:02:02.257Z,97934.70
2023-03-29T04:04:30.996Z,97933.49
2023-03-29T04:07:13.298Z,97951.10
2023-03-29T04:09:41.308Z,97941.09
2023-03-29T04:12:29.549Z,97947.35
2023-03-29T04:14:57.988Z,97950.28
2023-03-29T04:17:28.064Z,97949.73
2023-03-29T04:19:59.110Z,97947.29
2023-03-29T04:22:28.605Z,97958.89
2023-03-29T04:24:56.608Z,97959.31
2023-03-29T04:27:43.083Z,97962.82
2023-03-29T04:30:24.136Z,97964.05
2023-03-29T04:33:18.732Z,97968.94
2023-03-29T04:35:50.462Z,97968.64
2023-03-29T04:38:23.400Z,97971.95
2023-03-29T04:40:55.105Z,97976.23
2023-03-29T04:43:40.345Z,97980.19
2023-03-29T04:46:26.879Z,97982.38
2023-03-29T04:49:14.224Z,97987.33
2023-03-29T04:51:44.564Z,97996.73
2023-03-29T04:54:13.533Z,97996.95
2023-03-29T04:57:08.750Z,97991.47
2023-03-29T04:59:56.903Z,97998.59
2023-03-29T05:02:50.778Z,97996.87
2023-03-29T05:05:19.136Z,98003.75
2023-03-29T05:07:48.159Z,98002.86
2023-03-29T05:10:17.370Z,97998.98
2023-03-29T05:12:45.854Z,97996.51
2023-03-29T05:15:14.995Z,97997.52
2023-03-29T05:17:44.110Z,98003.10
2023-03-29T05:20:13.495Z,98006.49
2023-03-29T05:22:43.880Z,98006.81
2023-03-29T05:25:17.219Z,98004.47
2023-03-29T05:27:46.067Z,97998.39
2023-03-29T05:30:16.151Z,98000.17
2023-03-29T05:32:50.846Z,98011.63
2023-03-29T05:35:26.425Z,98012.40
2023-03-29T05:37:55.682Z,98011.98
2023-03-29T05:40:26.333Z,98012.22
2023-03-29T05:43:12.682Z,98016.66
2023-03-29T05:45:41.767Z,98014.34
2023-03-29T05:48:10.774Z,98018.65
2023-03-29T05:50:41.169Z,98017.34
2023-03-29T05:53:09.937Z,98028.12
2023-03-29T05:55:38.909Z,98025.84
2023-03-29T05:58:07.125Z,98023.33
2023-03-29T06:00:38.101Z,98022.45
2023-03-29T06:03:25.577Z,98025.96
2023-03-29T06:06:02.659Z,98032.94
2023-03-29T06:08:33.819Z,98044.76
2023-03-29T06:11:28.162Z,98050.66
2023-03-29T06:14:14.315Z,98043.09
2023-03-29T06:16:47.817Z,98046.05
2023-03-29T06:19:17.455Z,98044.98
2023-03-29T06:21:47.500Z,98041.85
2023-03-29T06:24:20.793Z,98050.16
2023-03-29T06:26:53.622Z,98049.80
2023-03-29T06:29:22.421Z,98052.27
2023-03-29T06:31:51.943Z,98062.09
2023-03-29T06:34:46.366Z,98064.41
2023-03-29T06:37:24.019Z,98067.08
2023-03-29T06:40:01.268Z,98076.39
2023-03-29T06:42:36.074Z,98083.86
2023-03-29T06:45:24.641Z,98077.27
2023-03-29T06:47:54.805Z,98081.21
2023-03-29T06:50:24.402Z,98087.95
2023-03-29T06:53:08.354Z,98086.26
2023-03-29T06:55:36.709Z,98089.55
2023-03-29T06:58:23.576Z,98084.66
2023-03-29T07:00:52.164Z,98095.65
2023-03-29T07:03:30.235Z,98095.59
2023-03-29T07:06:09.804Z,98090.14
2023-03-29T07:08:47.662Z,98087.14
2023-03-29T07:11:27.319Z,98086.61
2023-03-29T07:13:58.510Z,98095.89
2023-03-29T07:16:27.513Z,98088.92
2023-03-29T07:19:09.772Z,98099.53
2023-03-29T07:21:58.914Z,98101.98
2023-03-29T07:24:44.534Z,98105.96
2023-03-29T07:27:13.100Z,98107.57
2023-03-29T07:29:41.218Z,98115.71
2023-03-29T07:32:10.815Z,98113.66
2023-03-29T07:34:39.094Z,98122.92
2023-03-29T07:37:09.625Z,98118.61
2023-03-29T07:39:39.734Z,98112.79
2023-03-29T07:42:28.298Z,98110.13
2023-03-29T07:44:58.798Z,98113.30
2023-03-29T07:47:31.576Z,98126.73
2023-03-29T07:50:00.281Z,98128.84
2023-03-29T07:52:30.298Z,98132.61
2023-03-29T07:55:00.027Z,98119.05
2023-03-29T07:57:40.018Z,98123.27
2023-03-29T08:00:11.790Z,98119.73
2023-03-29T08:02:46.942Z,98123.31
2023-03-29T08:05:23.216Z,98129.09
2023-03-29T08:07:59.646Z,98116.44
2023-03-29T08:10:52.112Z,98121.93
2023-03-29T08:13:37.666Z,98114.49
2023-03-29T08:16:28.993Z,98120.40
2023-03-29T08:19:04.823Z,98128.17
2023-03-29T08:22:08.791Z,98127.11
2023-03-29T08:25:04.824Z,98130.52
2023-03-29T08:27:37.830Z,98133.20
2023-03-29T08:30:09.596Z,98136.23
2023-03-29T08:32:39.431Z,98134.36
2023-03-29T08:35:09.888Z,98137.94
2023-03-29T08:37:44.484Z,98136.91
2023-03-29T08:40:27.417Z,98118.88
2023-03-29T08:43:43.924Z,98122.09
2023-03-29T08:46:35.265Z,98130.73
2023-03-29T08:49:17.224Z,98127.80
2023-03-29T08:51:53.157Z,98136.31
2023-03-29T08:54:27.319Z,98138.32
2023-03-29T08:57:30.848Z,98137.18
2023-03-29T09:00:10.743Z,98136.18
2023-03-29T09:02:43.838Z,98138.27
2023-03-29T09:05:25.277Z,98133.27
2023-03-29T09:08:04.030Z,98125.20
2023-03-29T09:10:42.771Z,98128.37
2023-03-29T09:13:32.885Z,98146.52
2023-03-29T09:16:06.245Z,98146.04
2023-03-29T09:19:10.592Z,98153.29
2023-03-29T09:21:51.906Z,98137.10
2023-03-29T09:24:40.057Z,98134.13
2023-03-29T09:27:35.423Z,98130.55
2023-03-29T09:30:35.782Z,98139.15
2023-03-29T09:33:32.884Z,98132.73
2023-03-29T09:36:06.293Z,98131.06
2023-03-29T09:38:40.416Z,98133.80
2023-03-29T09:41:33.970Z,98128.41
2023-03-29T09:44:29.735Z,98121.21
2023-03-29T09:47:26.591Z,98121.29
2023-03-29T09:50:01.615Z,98117.77
2023-03-29T09:52:30.139Z,98113.54
2023-03-29T09:55:16.420Z,98130.77
2023-03-29T09:58:02.360Z,98119.72
2023-03-29T10:00:34.855Z,98127.07
2023-03-29T10:03:03.880Z,98122.27
2023-03-29T10:05:46.239Z,98114.58
2023-03-29T10:08:29.277Z,98118.12
2023-03-29T10:11:01.081Z,98135.65
2023-03-29T10:13:33.191Z,98130.63
2023-03-29T10:16:08.184Z,98133.48
2023-03-29T10:18:42.064Z,98147.04
2023-03-29T10:21:21.107Z,98123.92
2023-03-29T10:23:57.519Z,98123.24
2023-03-29T10:26:34.080Z,98123.23
2023-03-29T10:29:06.438Z,98126.69
2023-03-29T10:31:41.891Z,98128.48
2023-03-29T10:34:15.393Z,98128.14
2023-03-29T10:37:01.529Z,98119.48
2023-03-29T10:39:34.738Z,98115.83
2023-03-29T10:42:04.854Z,98121.02
2023-03-29T10:44:36.896Z,98115.61
2023-03-29T10:47:24.097Z,98116.45
2023-03-29T10:49:56.980Z,98119.51
2023-03-29T10:52:26.768Z,98115.05
2023-03-29T10:54:56.834Z,98112.67
2023-03-29T10:57:53.559Z,98120.34
2023-03-29T11:00:51.402Z,98114.92
2023-03-29T11:03:21.595Z,98114.03
2023-03-29T11:06:04.404Z,98103.03
2023-03-29T11:08:54.121Z,98105.88
2023-03-29T11:11:44.272Z,98094.14
2023-03-29T11:14:36.178Z,98101.95
2023-03-29T11:17:12.608Z,98101.63
2023-03-29T11:19:50.054Z,98097.95
2023-03-29T11:22:32.164Z,98081.77
2023-03-29T11:25:15.399Z,98087.21
2023-03-29T11:28:06.881Z,98077.54
2023-03-29T11:30:57.272Z,98084.35
2023-03-29T11:33:33.792Z,98087.21
2023-03-29T11:36:21.607Z,98084.30
2023-03-29T11:38:55.823Z,98081.59
2023-03-29T11:41:35.421Z,98077.49
2023-03-29T11:44:26.434Z,98069.39
2023-03-29T11:47:10.017Z,98073.80
2023-03-29T11:49:49.556Z,98074.79
2023-03-29T11:52:33.917Z,98066.69
2023-03-29T11:55:10.181Z,98066.15
2023-03-29T11:57:48.136Z,98061.93
2023-03-29T12:00:22.676Z,98062.41
2023-03-29T12:02:57.244Z,98055.52
2023-03-29T12:05:32.800Z,98071.48
2023-03-29T12:08:07.513Z,98073.30
2023-03-29T12:11:01.255Z,98059.75
2023-03-29T12:13:44.900Z,98065.25
2023-03-29T12:16:39.893Z,98069.80
2023-03-29T12:19:40.297Z,98073.88
2023-03-29T12:22:11.017Z,98080.20
2023-03-29T12:24:46.035Z,98073.67
2023-03-29T12:27:24.215Z,98070.48
2023-03-29T12:30:21.913Z,98077.84
2023-03-29T12:33:09.692Z,98080.84
2023-03-29T12:36:11.691Z,98081.94
2023-03-29T12:39:00.373Z,98085.13
2023-03-29T12:41:51.888Z,98079.89
2023-03-29T12:44:41.320Z,98067.92
2023-03-29T12:47:42.727Z,98077.66
2023-03-29T12:50:42.532Z,98078.52
2023-03-29T12:53:37.367Z,98082.64
2023-03-29T12:56:11.983Z,98091.13
2023-03-29T12:58:40.510Z,98078.55
2023-03-29T13:01:27.690Z,98076.00
2023-03-29T13:04:01.969Z,98061.92
2023-03-29T13:06:52.241Z,98052.68
2023-03-29T13:09:31.175Z,98066.52
2023-03-29T13:12:08.299Z,98077.46
2023-03-29T13:14:40.922Z,98071.42
2023-03-29T13:17:22.129Z,98058.04
2023-03-29T13:19:56.511Z,98052.25
2023-03-29T13:22:57.003Z,98047.77
2023-03-29T13:25:45.154Z,98051.17
2023-03-29T13:28:39.196Z,98061.30
2023-03-29T13:31:35.592Z,98059.46
2023-03-29T13:34:13.322Z,98067.06
2023-03-29T13:37:18.596Z,98074.08
2023-03-29T13:39:53.142Z,98055.69
2023-03-29T13:42:34.276Z,98054.54
2023-03-29T13:45:14.696Z,98050.53
2023-03-29T13:47:54.901Z,98051.73
2023-03-29T13:50:40.528Z,98050.15
2023-03-29T13:53:45.889Z,98047.80
2023-03-29T13:56:25.269Z,98045.25
2023-03-29T13:59:17.438Z,98048.75
2023-03-29T14:01:54.821Z,98042.88
2023-03-29T14:04:46.982Z,98034.60
2023-03-29T14:07:18.886Z,98023.49
2023-03-29T14:09:50.552Z,98019.74
2023-03-29T14:12:18.955Z,98032.84
2023-03-29T14:14:58.149Z,98024.82
2023-03-29T14:17:27.544Z,98021.30
2023-03-29T14:19:58.833Z,98032.48
2023-03-29T14:22:33.001Z,98029.58
2023-03-29T14:25:06.719Z,98036.17
2023-03-29T14:27:37.358Z,98040.64
2023-03-29T14:30:28.728Z,98035.39
2023-03-29T14:32:57.147Z,98036.03
2023-03-29T14:35:32.380Z,98046.23
2023-03-29T14:38:00.785Z,98047.02
2023-03-29T14:40:31.321Z,98055.06
2023-03-29T14:43:05.809Z,98047.48
2023-03-29T14:45:34.384Z,98045.52
2023-03-29T14:48:03.586Z,98034.47
2023-03-29T14:50:32.632Z,98029.58
2023-03-29T14:53:02.260Z,98031.19
2023-03-29T14:55:32.029Z,98032.98
2023-03-29T14:58:01.109Z,98043.42
2023-03-29T15:00:51.832Z,98044.30
2023-03-29T15:03:27.483Z,98041.31
2023-03-29T15:06:04.813Z,98038.23
2023-03-29T15:08:37.927Z,98040.79
2023-03-29T15:11:19.816Z,98036.81
2023-03-29T15:13:49.998Z,98034.33
2023-03-29T15:16:22.832Z,98035.23
2023-03-29T15:18:53.062Z,98040.70
2023-03-29T15:21:23.023Z,98029.84
2023-03-29T15:23:59.817Z,98035.98
2023-03-29T15:26:32.969Z,98038.45
2023-03-29T15:29:13.669Z,98034.80
2023-03-29T15:31:42.505Z,98037.24
2023-03-29T15:34:25.914Z,98041.80
2023-03-29T15:36:54.731Z,98031.05
2023-03-29T15:39:23.138Z,98036.77
2023-03-29T15:41:53.307Z,98046.77
2023-03-29T15:44:43.655Z,98042.77
2023-03-29T15:47:13.282Z,98041.45
2023-03-29T15:49:42.138Z,98042.94
2023-03-29T15:52:10.792Z,98047.17
2023-03-29T15:54:39.023Z,98055.10
2023-03-29T15:57:11.951Z,98048.85
2023-03-29T15:59:40.198Z,98045.61
2023-03-29T16:02:14.166Z,98047.27
2023-03-29T16:04:43.208Z,98044.17
2023-03-29T16:07:16.214Z,98051.38
2023-03-29T16:09:47.654Z,98046.84
2023-03-29T16:12:16.541Z,98044.72
2023-03-29T16:14:44.844Z,98052.12
2023-03-29T16:17:12.918Z,98053.30
2023-03-29T16:19:40.968Z,98052.53
2023-03-29T16:22:09.086Z,98057.80
2023-03-29T16:24:37.451Z,98057.39
2023-03-29T16:27:05.836Z,98052.11
2023-03-29T16:29:33.844Z,98055.98
2023-03-29T16:32:04.737Z,98057.98
2023-03-29T16:34:36.244Z,98058.27
2023-03-29T16:37:04.400Z,98065.23
2023-03-29T16:39:32.471Z,98063.25
2023-03-29T16:42:00.533Z,98067.48
2023-03-29T16:44:28.578Z,98072.61
2023-03-29T16:46:58.548Z,98073.05
2023-03-29T16:49:26.846Z,98076.57
2023-03-29T16:51:55.236Z,98079.80
2023-03-29T16:54:26.041Z,98077.10
2023-03-29T16:56:54.238Z,98080.98
2023-03-29T16:59:22.492Z,98080.52
2023-03-29T17:01:51.212Z,98082.63
2023-03-29T17:04:19.685Z,98086.98
2023-03-29T17:06:47.703Z,98086.90
2023-03-29T17:09:17.850Z,98091.10
2023-03-29T17:11:46.594Z,98098.67
2023-03-29T17:14:15.083Z,98104.08
2023-03-29T17:16:43.457Z,98104.27
2023-03-29T17:19:11.729Z,98106.83
2023-03-29T17:21:39.973Z,98112.30
2023-03-29T17:24:09.933Z,98117.73
2023-03-29T17:26:38.366Z,98118.15
2023-03-29T17:29:06.483Z,98116.48
2023-03-29T17:31:36.362Z,98116.60
2023-03-29T17:34:04.647Z,98119.87
2023-03-29T17:36:33.917Z,98126.48
2023-03-29T17:39:02.817Z,98126.86
2023-03-29T17:41:31.403Z,98126.48
2023-03-29T17:43:59.737Z,98130.08
2023-03-29T17:46:28.809Z,98131.95
2023-03-29T17:48:59.348Z,98133.79
2023-03-29T17:51:27.730Z,98133.52
2023-03-29T17:53:57.376Z,98137.34
2023-03-29T17:56:26.440Z,98137.21
2023-03-29T17:58:54.528Z,98141.48
2023-03-29T18:01:23.125Z,98148.13
2023-03-29T18:03:51.609Z,98151.66
2023-03-29T18:06:21.117Z,98154.14
2023-03-29T18:08:49.734Z,98156.16
2023-03-29T18:11:22.728Z,98158.04
2023-03-29T18:13:52.642Z,98158.38
2023-03-29T18:16:22.012Z,98162.16
2023-03-29T18:18:50.078Z,98162.95
2023-03-29T18:21:18.466Z,98163.53
2023-03-29T18:23:48.261Z,98163.55
2023-03-29T18:26:16.925Z,98169.22
2023-03-29T18:28:47.480Z,98170.17
2023-03-29T18:31:15.743Z,98170.59
2023-03-29T18:33:43.912Z,98174.98
2023-03-29T18:36:13.635Z,98179.41
2023-03-29T18:38:43.765Z,98180.42
2023-03-29T18:41:14.335Z,98184.16
2023-03-29T18:43:43.496Z,98187.54
2023-03-29T18:46:12.325Z,98184.42
2023-03-29T18:48:41.225Z,98179.76
2023-03-29T18:51:11.673Z,98180.48
2023-03-29T18:53:41.863Z,98183.81
2023-03-29T18:56:10.280Z,98188.91
2023-03-29T18:58:38.228Z,98196.20
2023-03-29T19:01:07.098Z,98198.80
2023-03-29T19:03:36.560Z,98194.38
2023-03-29T19:06:05.540Z,98192.39
2023-03-29T19:08:36.732Z,98193.12
2023-03-29T19:11:07.521Z,98194.96
2023-03-29T19:13:36.383Z,98200.73
2023-03-29T19:16:04.940Z,98200.31
2023-03-29T19:18:33.897Z,98201.65
2023-03-29T19:21:02.653Z,98204.69
2023-03-29T19:23:30.982Z,98204.46
2023-03-29T19:26:02.839Z,98206.41
2023-03-29T19:28:32.706Z,98209.06
2023-03-29T19:31:02.722Z,98209.48
2023-03-29T19:33:30.979Z,98212.69
2023-03-29T19:35:59.420Z,98216.06
2023-03-29T19:38:27.491Z,98216.81
2023-03-29T19:40:55.593Z,98212.80
2023-03-29T19:43:24.985Z,98210.35
2023-03-29T19:45:52.978Z,98208.61
2023-03-29T19:48:23.840Z,98200.91
2023-03-29T19:50:52.847Z,98199.26
2023-03-29T19:53:21.507Z,98199.55
2023-03-29T19:55:49.587Z,98194.66
2023-03-29T19:58:17.883Z,98191.79
2023-03-29T20:00:47.335Z,98188.90
2023-03-29T20:03:15.837Z,98189.98
2023-03-29T20:05:44.035Z,98190.19
2023-03-29T20:08:12.374Z,98194.52
2023-03-29T20:10:40.506Z,98194.88
2023-03-29T20:13:08.845Z,98197.59
2023-03-29T20:15:37.162Z,98202.37
2023-03-29T20:18:06.211Z,98205.24
2023-03-29T20:20:35.860Z,98197.68
2023-03-29T20:23:05.505Z,98196.83
2023-03-29T20:25:35.745Z,98194.42
2023-03-29T20:28:04.983Z,98190.23
2023-03-29T20:30:33.231Z,98189.67
2023-03-29T20:33:01.499Z,98189.81
2023-03-29T20:35:29.616Z,98185.55
2023-03-29T20:37:57.654Z,98185.64
2023-03-29T20:40:25.721Z,98188.57
2023-03-29T20:42:54.436Z,98184.95
2023-03-29T20:45:22.344Z,98184.86
2023-03-29T20:47:57.928Z,98185.36
2023-03-29T20:50:26.759Z,98182.61
2023-03-29T20:53:03.835Z,98183.52
2023-03-29T20:55:33.740Z,98180.61
2023-03-29T20:58:02.848Z,98181.75
2023-03-29T21:00:33.652Z,98182.11
2023-03-29T21:03:04.177Z,98182.32
2023-03-29T21:05:33.963Z,98182.86
2023-03-29T21:08:02.695Z,98183.53
2023-03-29T21:10:31.001Z,98181.98
2023-03-29T21:13:02.854Z,98181.63
2023-03-29T21:15:32.277Z,98181.30
2023-03-29T21:18:00.700Z,98181.30
2023-03-29T21:20:28.906Z,98180.92
2023-03-29T21:22:57.281Z,98186.86
2023-03-29T21:25:25.417Z,98188.02
2023-03-29T21:27:53.405Z,98190.45
2023-03-29T21:30:21.593Z,98193.11
2023-03-29T21:32:49.608Z,98193.52
2023-03-29T21:35:17.857Z,98199.70
2023-03-29T21:37:46.176Z,98203.68
2023-03-29T21:40:14.606Z,98202.65
2023-03-29T21:42:42.843Z,98204.02
2023-03-29T21:45:11.249Z,98203.13
2023-03-29T21:47:39.283Z,98203.83
2023-03-29T21:50:08.073Z,98202.95
2023-03-29T21:52:37.954Z,98202.19
2023-03-29T21:55:06.940Z,98196.94
2023-03-29T21:57:35.057Z,98196.88
2023-03-29T22:00:05.410Z,98198.61
2023-03-29T22:02:33.585Z,98197.63
2023-03-29T22:05:01.781Z,98198.12
2023-03-29T22:07:29.844Z,98204.02
2023-03-29T22:09:59.012Z,98209.98
2023-03-29T22:12:27.228Z,98215.73
2023-03-29T22:14:55.237Z,98213.46
2023-03-29T22:17:23.256Z,98213.75
2023-03-29T22:19:51.894Z,98211.36
2023-03-29T22:22:21.860Z,98209.66
2023-03-29T22:24:53.344Z,98211.17
2023-03-29T22:27:22.646Z,98208.37
2023-03-29T22:29:50.578Z,98207.47
2023-03-29T22:32:18.616Z,98206.86
2023-03-29T22:34:46.750Z,98203.45
2023-03-29T22:37:14.688Z,98207.14
2023-03-29T22:39:42.808Z,98207.10
2023-03-29T22:42:10.865Z,98207.05
2023-03-29T22:44:38.833Z,98204.60
2023-03-29T22:47:07.545Z,98207.77
2023-03-29T22:49:35.735Z,98212.52
2023-03-29T22:52:03.704Z,98212.98
2023-03-29T22:54:32.010Z,98214.50
2023-03-29T22:57:00.142Z,98211.59
2023-03-29T22:59:28.252Z,98206.64
2023-03-29T23:01:56.592Z,98202.49
2023-03-29T23:04:24.675Z,98204.13
2023-03-29T23:06:53.347Z,98205.55
2023-03-29T23:09:21.349Z,98214.98
2023-03-29T23:11:49.331Z,98220.53
2023-03-29T23:14:19.103Z,98218.73
2023-03-29T23:16:47.342Z,98220.52
2023-03-29T23:19:15.340Z,98218.90
2023-03-29T23:21:43.301Z,98221.05
2023-03-29T23:24:11.242Z,98219.40
2023-03-29T23:26:39.320Z,98217.82
2023-03-29T23:29:07.878Z,98214.67
2023-03-29T23:31:37.847Z,98214.98
2023-03-29T23:34:05.918Z,98211.98
2023-03-29T23:36:33.851Z,98212.57
2023-03-29T23:39:02.175Z,98215.90
2023-03-29T23:41:30.882Z,98215.42
2023-03-29T23:43:59.009Z,98215.27
2023-03-29T23:46:27.211Z,98221.08
2023-03-29T23:48:55.512Z,98219.62
2023-03-29T23:51:28.993Z,98220.33
2023-03-29T23:53:57.246Z,98223.20
2023-03-29T23:56:25.211Z,98220.73
2023-03-29T23:58:53.272Z,98221.52
